createdAt,value
2022-08-05T00:08:00.863Z,19.9
2022-08-05T00:20:02.481Z,19.8
2022-08-05T00:32:13.086Z,19.7
2022-08-05T00:43:53.493Z,19.6
2022-08-05T00:55:53.884Z,19.5
2022-08-05T01:08:42.201Z,19.6
2022-08-05T01:20:01.638Z,19.6
2022-08-05T01:31:54.547Z,19.6
2022-08-05T01:43:53.869Z,19.4
2022-08-05T01:55:53.461Z,19.3
2022-08-05T02:08:00.166Z,19.1
2022-08-05T02:19:53.445Z,19.1
2022-08-05T02:31:53.431Z,19.1
2022-08-05T02:44:02.786Z,19.1
2022-08-05T02:55:59.627Z,19.1
2022-08-05T03:08:06.672Z,19.2
2022-08-05T03:19:53.875Z,19.1
2022-08-05T03:31:57.231Z,19.0
2022-08-05T03:44:08.598Z,19.0
2022-08-05T03:56:10.260Z,19.0
2022-08-05T04:07:57.961Z,18.6
2022-08-05T04:19:54.548Z,18.5
2022-08-05T04:31:53.450Z,18.3
2022-08-05T04:43:53.464Z,18.1
2022-08-05T04:56:15.321Z,18.2
2022-08-05T05:07:56.473Z,18.2
2022-08-05T05:19:53.529Z,18.5
2022-08-05T05:31:53.437Z,18.6
2022-08-05T05:43:58.300Z,18.6
2022-08-05T05:56:00.820Z,18.7
2022-08-05T06:08:01.167Z,18.8
2022-08-05T06:19:57.174Z,19.1
2022-08-05T06:31:53.415Z,18.8
2022-08-05T06:44:00.299Z,18.8
2022-08-05T06:55:53.463Z,18.9
2022-08-05T07:07:53.416Z,18.9
2022-08-05T07:31:54.701Z,19.3
2022-08-05T07:43:56.122Z,19.7
2022-08-05T07:56:05.477Z,19.7
2022-08-05T08:08:00.146Z,19.7
2022-08-05T08:20:22.816Z,19.7
2022-08-05T08:31:53.467Z,19.5
2022-08-05T08:45:22.445Z,19.4
2022-08-05T08:56:05.231Z,19.6
2022-08-05T09:07:57.964Z,20.1
2022-08-05T09:20:01.963Z,20.1
2022-08-05T09:32:41.742Z,19.8
2022-08-05T09:43:53.463Z,20.4
2022-08-05T09:55:57.457Z,20.2
2022-08-05T10:08:35.353Z,20.3
2022-08-05T10:20:04.564Z,19.9
2022-08-05T10:32:53.121Z,20.2
2022-08-05T10:43:53.419Z,20.8
2022-08-05T10:56:03.499Z,20.7
2022-08-05T11:08:02.893Z,21.3
2022-08-05T11:20:10.612Z,20.9
2022-08-05T11:31:57.147Z,20.6
2022-08-05T11:44:07.283Z,19.9
2022-08-05T11:55:53.467Z,19.2
2022-08-05T12:08:09.100Z,19.0
2022-08-05T12:20:27.555Z,18.7
2022-08-05T12:31:54.309Z,18.2
2022-08-05T12:43:53.868Z,17.6
2022-08-05T12:55:53.636Z,17.1
2022-08-05T13:07:59.371Z,17.6
2022-08-05T13:19:54.006Z,17.9
2022-08-05T13:32:03.912Z,18.1
2022-08-05T13:43:54.699Z,18.7
2022-08-05T13:56:00.170Z,19.1
2022-08-05T14:08:01.174Z,20.0
2022-08-05T14:19:55.340Z,20.2
2022-08-05T14:32:02.333Z,20.0
2022-08-05T14:44:00.211Z,20.3
2022-08-05T14:55:53.484Z,20.7
2022-08-05T15:08:11.342Z,21.1
2022-08-05T15:19:55.171Z,20.7
2022-08-05T15:31:53.523Z,20.7
2022-08-05T15:43:54.920Z,20.7
2022-08-05T15:56:02.436Z,20.9
2022-08-05T16:07:53.548Z,20.4
2022-08-05T16:20:05.159Z,20.4
2022-08-05T16:31:56.287Z,20.6
2022-08-05T16:43:56.133Z,20.9
2022-08-05T16:55:53.436Z,20.0
2022-08-05T17:07:54.584Z,19.7
2022-08-05T17:19:55.401Z,19.6
2022-08-05T17:31:58.177Z,19.3
2022-08-05T17:43:54.347Z,19.3
2022-08-05T17:55:53.469Z,19.2
2022-08-05T18:07:53.455Z,18.9
2022-08-05T18:19:54.016Z,18.9
2022-08-05T18:31:53.460Z,18.7
2022-08-05T18:43:53.453Z,18.6
2022-08-05T18:55:53.448Z,18.5
2022-08-05T19:07:53.459Z,18.1
2022-08-05T19:19:53.473Z,17.8
2022-08-05T19:31:53.464Z,17.6
2022-08-05T19:44:05.423Z,17.4
2022-08-05T19:56:15.640Z,17.3
2022-08-05T20:07:58.974Z,17.0
2022-08-05T20:19:56.990Z,17.0
2022-08-05T20:31:57.593Z,16.8
2022-08-05T20:43:59.099Z,16.6
2022-08-05T20:55:56.364Z,16.6
2022-08-05T21:07:53.458Z,16.5
2022-08-05T21:19:53.640Z,16.3
2022-08-05T21:31:53.438Z,16.2
2022-08-05T21:44:03.790Z,16.0
2022-08-05T21:56:04.371Z,15.8
2022-08-05T22:07:58.923Z,15.3
2022-08-05T22:19:57.176Z,15.3
2022-08-05T22:31:59.126Z,15.2
2022-08-05T22:43:53.461Z,15.2
2022-08-05T22:55:56.971Z,14.9
2022-08-05T23:07:53.426Z,14.4
2022-08-05T23:19:56.216Z,14.4
2022-08-05T23:31:53.435Z,14.2
2022-08-05T23:44:04.688Z,14.4
2022-08-05T23:55:53.638Z,13.8
